sensor_id;sensor_type;location;lat;lon;timestamp;temperature;humidity
57857;DHT22;43683;48.650;9.290;2023-08-21T00:00:02;21.10;89.80
57857;DHT22;43683;48.650;9.290;2023-08-21T00:02:29;21.10;90.30
57857;DHT22;43683;48.650;9.290;2023-08-21T00:04:55;21.00;90.00
57857;DHT22;43683;48.650;9.290;2023-08-21T00:07:20;21.00;90.10
57857;DHT22;43683;48.650;9.290;2023-08-21T00:09:46;20.90;90.20
57857;DHT22;43683;48.650;9.290;2023-08-21T00:12:11;20.90;90.20
57857;DHT22;43683;48.650;9.290;2023-08-21T00:14:37;20.90;90.30
57857;DHT22;43683;48.650;9.290;2023-08-21T00:17:03;20.90;90.30
57857;DHT22;43683;48.650;9.290;2023-08-21T00:19:29;20.90;90.40
57857;DHT22;43683;48.650;9.290;2023-08-21T00:21:55;20.90;90.50
57857;DHT22;43683;48.650;9.290;2023-08-21T00:24:20;20.80;90.50
57857;DHT22;43683;48.650;9.290;2023-08-21T00:26:46;20.80;90.50
57857;DHT22;43683;48.650;9.290;2023-08-21T00:29:11;20.80;90.60
57857;DHT22;43683;48.650;9.290;2023-08-21T00:31:37;20.70;90.60
57857;DHT22;43683;48.650;9.290;2023-08-21T00:34:02;20.70;90.70
57857;DHT22;43683;48.650;9.290;2023-08-21T00:36:28;20.70;90.80
57857;DHT22;43683;48.650;9.290;2023-08-21T00:38:53;20.60;90.80
57857;DHT22;43683;48.650;9.290;2023-08-21T00:41:19;20.50;90.90
57857;DHT22;43683;48.650;9.290;2023-08-21T00:43:44;20.50;91.00
57857;DHT22;43683;48.650;9.290;2023-08-21T00:46:10;20.50;91.10
57857;DHT22;43683;48.650;9.290;2023-08-21T00:48:36;20.40;91.20
57857;DHT22;43683;48.650;9.290;2023-08-21T00:51:03;20.40;91.20
57857;DHT22;43683;48.650;9.290;2023-08-21T00:53:29;20.30;91.30
57857;DHT22;43683;48.650;9.290;2023-08-21T00:55:55;20.30;91.30
57857;DHT22;43683;48.650;9.290;2023-08-21T00:58:20;20.20;91.40
57857;DHT22;43683;48.650;9.290;2023-08-21T01:00:47;20.10;91.40
57857;DHT22;43683;48.650;9.290;2023-08-21T01:03:14;20.10;91.50
57857;DHT22;43683;48.650;9.290;2023-08-21T01:05:40;20.10;91.60
57857;DHT22;43683;48.650;9.290;2023-08-21T01:08:14;20.00;91.60
57857;DHT22;43683;48.650;9.290;2023-08-21T01:16:02;20.00;91.80
57857;DHT22;43683;48.650;9.290;2023-08-21T01:18:29;20.00;91.80
57857;DHT22;43683;48.650;9.290;2023-08-21T01:20:55;19.90;91.80
57857;DHT22;43683;48.650;9.290;2023-08-21T01:23:36;19.90;91.80
57857;DHT22;43683;48.650;9.290;2023-08-21T01:26:02;19.80;91.90
57857;DHT22;43683;48.650;9.290;2023-08-21T01:28:28;19.80;91.90
57857;DHT22;43683;48.650;9.290;2023-08-21T01:31:21;19.70;91.90
57857;DHT22;43683;48.650;9.290;2023-08-21T01:33:53;19.70;92.10
57857;DHT22;43683;48.650;9.290;2023-08-21T01:36:18;19.70;92.00
57857;DHT22;43683;48.650;9.290;2023-08-21T01:38:45;19.70;92.10
57857;DHT22;43683;48.650;9.290;2023-08-21T01:41:11;19.70;92.00
57857;DHT22;43683;48.650;9.290;2023-08-21T01:43:36;19.80;92.10
57857;DHT22;43683;48.650;9.290;2023-08-21T01:46:02;19.80;92.10
57857;DHT22;43683;48.650;9.290;2023-08-21T01:48:28;19.70;92.10
57857;DHT22;43683;48.650;9.290;2023-08-21T01:50:54;19.70;92.10
57857;DHT22;43683;48.650;9.290;2023-08-21T01:53:19;19.80;92.20
57857;DHT22;43683;48.650;9.290;2023-08-21T01:55:45;19.70;92.20
57857;DHT22;43683;48.650;9.290;2023-08-21T01:58:11;19.80;92.30
57857;DHT22;43683;48.650;9.290;2023-08-21T02:00:36;19.70;92.30
57857;DHT22;43683;48.650;9.290;2023-08-21T02:03:02;19.70;92.40
57857;DHT22;43683;48.650;9.290;2023-08-21T02:05:27;19.70;92.40
57857;DHT22;43683;48.650;9.290;2023-08-21T02:07:53;19.70;92.50
57857;DHT22;43683;48.650;9.290;2023-08-21T02:10:18;19.70;92.50
57857;DHT22;43683;48.650;9.290;2023-08-21T02:12:44;19.70;92.50
57857;DHT22;43683;48.650;9.290;2023-08-21T02:15:10;19.70;92.60
57857;DHT22;43683;48.650;9.290;2023-08-21T02:17:35;19.60;92.60
57857;DHT22;43683;48.650;9.290;2023-08-21T02:20:01;19.60;92.60
57857;DHT22;43683;48.650;9.290;2023-08-21T02:22:26;19.60;92.60
57857;DHT22;43683;48.650;9.290;2023-08-21T02:24:53;19.60;92.70
57857;DHT22;43683;48.650;9.290;2023-08-21T02:27:18;19.60;92.70
57857;DHT22;43683;48.650;9.290;2023-08-21T02:29:44;19.50;92.80
57857;DHT22;43683;48.650;9.290;2023-08-21T02:32:09;19.50;92.80
57857;DHT22;43683;48.650;9.290;2023-08-21T02:34:35;19.50;92.80
57857;DHT22;43683;48.650;9.290;2023-08-21T02:37:01;19.50;92.80
57857;DHT22;43683;48.650;9.290;2023-08-21T02:39:26;19.40;92.90
57857;DHT22;43683;48.650;9.290;2023-08-21T02:41:52;19.30;92.90
57857;DHT22;43683;48.650;9.290;2023-08-21T02:44:17;19.30;93.30
57857;DHT22;43683;48.650;9.290;2023-08-21T02:46:43;19.30;93.00
57857;DHT22;43683;48.650;9.290;2023-08-21T02:49:08;19.30;93.10
57857;DHT22;43683;48.650;9.290;2023-08-21T02:51:34;19.30;93.10
57857;DHT22;43683;48.650;9.290;2023-08-21T02:53:59;19.20;93.10
57857;DHT22;43683;48.650;9.290;2023-08-21T02:56:25;19.20;93.10
57857;DHT22;43683;48.650;9.290;2023-08-21T02:58:50;19.20;93.10
57857;DHT22;43683;48.650;9.290;2023-08-21T03:01:16;19.20;93.20
57857;DHT22;43683;48.650;9.290;2023-08-21T03:03:42;19.20;93.20
57857;DHT22;43683;48.650;9.290;2023-08-21T03:06:07;19.10;93.20
57857;DHT22;43683;48.650;9.290;2023-08-21T03:08:33;19.10;93.20
57857;DHT22;43683;48.650;9.290;2023-08-21T03:10:59;19.10;93.30
57857;DHT22;43683;48.650;9.290;2023-08-21T03:13:24;19.10;93.30
57857;DHT22;43683;48.650;9.290;2023-08-21T03:15:50;19.10;93.30
57857;DHT22;43683;48.650;9.290;2023-08-21T03:18:15;19.10;93.30
57857;DHT22;43683;48.650;9.290;2023-08-21T03:20:45;19.10;93.30
57857;DHT22;43683;48.650;9.290;2023-08-21T03:23:11;19.00;93.40
57857;DHT22;43683;48.650;9.290;2023-08-21T03:25:36;19.00;93.30
57857;DHT22;43683;48.650;9.290;2023-08-21T03:28:02;19.00;93.40
57857;DHT22;43683;48.650;9.290;2023-08-21T03:30:27;19.00;93.40
57857;DHT22;43683;48.650;9.290;2023-08-21T03:32:53;18.90;93.40
57857;DHT22;43683;48.650;9.290;2023-08-21T03:35:18;19.00;93.50
57857;DHT22;43683;48.650;9.290;2023-08-21T03:37:44;19.00;93.50
57857;DHT22;43683;48.650;9.290;2023-08-21T03:40:10;18.90;93.40
57857;DHT22;43683;48.650;9.290;2023-08-21T03:42:35;18.90;93.50
57857;DHT22;43683;48.650;9.290;2023-08-21T03:45:02;18.90;93.50
57857;DHT22;43683;48.650;9.290;2023-08-21T03:47:29;18.90;93.60
57857;DHT22;43683;48.650;9.290;2023-08-21T03:49:54;18.90;93.60
57857;DHT22;43683;48.650;9.290;2023-08-21T03:52:20;18.90;93.60
57857;DHT22;43683;48.650;9.290;2023-08-21T03:54:45;18.80;93.40
57857;DHT22;43683;48.650;9.290;2023-08-21T03:57:11;18.80;93.70
57857;DHT22;43683;48.650;9.290;2023-08-21T03:59:36;18.80;93.70
57857;DHT22;43683;48.650;9.290;2023-08-21T04:02:02;18.80;93.70
57857;DHT22;43683;48.650;9.290;2023-08-21T04:04:27;18.80;93.70
57857;DHT22;43683;48.650;9.290;2023-08-21T04:06:53;18.80;93.80
57857;DHT22;43683;48.650;9.290;2023-08-21T04:09:18;18.70;93.80
57857;DHT22;43683;48.650;9.290;2023-08-21T04:11:44;18.70;93.80
57857;DHT22;43683;48.650;9.290;2023-08-21T04:14:09;18.70;93.80
57857;DHT22;43683;48.650;9.290;2023-08-21T04:16:35;18.70;93.90
57857;DHT22;43683;48.650;9.290;2023-08-21T04:19:01;18.80;93.90
57857;DHT22;43683;48.650;9.290;2023-08-21T04:21:26;18.80;93.90
57857;DHT22;43683;48.650;9.290;2023-08-21T04:23:52;18.80;94.20
57857;DHT22;43683;48.650;9.290;2023-08-21T04:26:18;18.80;93.90
57857;DHT22;43683;48.650;9.290;2023-08-21T04:28:45;18.70;93.90
57857;DHT22;43683;48.650;9.290;2023-08-21T04:31:10;18.80;93.90
57857;DHT22;43683;48.650;9.290;2023-08-21T04:33:36;18.80;93.90
57857;DHT22;43683;48.650;9.290;2023-08-21T04:36:02;18.80;93.90
57857;DHT22;43683;48.650;9.290;2023-08-21T04:38:27;18.90;94.00
57857;DHT22;43683;48.650;9.290;2023-08-21T04:40:53;18.80;93.90
57857;DHT22;43683;48.650;9.290;2023-08-21T04:43:18;18.90;93.90
57857;DHT22;43683;48.650;9.290;2023-08-21T04:45:48;18.90;93.90
57857;DHT22;43683;48.650;9.290;2023-08-21T04:48:14;18.90;94.00
57857;DHT22;43683;48.650;9.290;2023-08-21T04:50:40;19.00;93.90
57857;DHT22;43683;48.650;9.290;2023-08-21T04:53:05;19.00;93.90
57857;DHT22;43683;48.650;9.290;2023-08-21T04:55:31;19.00;93.80
57857;DHT22;43683;48.650;9.290;2023-08-21T04:57:57;19.00;93.80
57857;DHT22;43683;48.650;9.290;2023-08-21T05:00:22;19.10;93.80
57857;DHT22;43683;48.650;9.290;2023-08-21T05:02:48;19.20;93.70
57857;DHT22;43683;48.650;9.290;2023-08-21T05:05:13;19.20;93.70
57857;DHT22;43683;48.650;9.290;2023-08-21T05:07:39;19.20;93.60
57857;DHT22;43683;48.650;9.290;2023-08-21T05:10:05;19.30;93.60
57857;DHT22;43683;48.650;9.290;2023-08-21T05:12:31;19.30;93.50
57857;DHT22;43683;48.650;9.290;2023-08-21T05:14:56;19.40;93.50
57857;DHT22;43683;48.650;9.290;2023-08-21T05:17:22;19.40;93.40
57857;DHT22;43683;48.650;9.290;2023-08-21T05:19:47;19.50;93.40
57857;DHT22;43683;48.650;9.290;2023-08-21T05:22:13;19.60;93.30
57857;DHT22;43683;48.650;9.290;2023-08-21T05:24:38;19.70;93.30
57857;DHT22;43683;48.650;9.290;2023-08-21T05:27:04;19.70;93.20
57857;DHT22;43683;48.650;9.290;2023-08-21T05:29:30;19.80;93.10
57857;DHT22;43683;48.650;9.290;2023-08-21T05:31:55;19.80;93.00
57857;DHT22;43683;48.650;9.290;2023-08-21T05:34:21;19.90;93.10
57857;DHT22;43683;48.650;9.290;2023-08-21T05:36:46;20.00;92.90
57857;DHT22;43683;48.650;9.290;2023-08-21T05:39:12;20.00;92.90
57857;DHT22;43683;48.650;9.290;2023-08-21T05:41:38;20.10;92.80
57857;DHT22;43683;48.650;9.290;2023-08-21T05:44:04;20.10;92.70
57857;DHT22;43683;48.650;9.290;2023-08-21T05:46:30;20.20;92.70
57857;DHT22;43683;48.650;9.290;2023-08-21T05:48:55;20.30;92.60
57857;DHT22;43683;48.650;9.290;2023-08-21T05:51:21;20.30;92.50
57857;DHT22;43683;48.650;9.290;2023-08-21T05:53:46;20.40;92.50
57857;DHT22;43683;48.650;9.290;2023-08-21T05:56:12;20.50;92.40
57857;DHT22;43683;48.650;9.290;2023-08-21T05:58:37;20.60;92.30
57857;DHT22;43683;48.650;9.290;2023-08-21T06:01:03;20.60;92.30
57857;DHT22;43683;48.650;9.290;2023-08-21T06:03:29;20.70;92.30
57857;DHT22;43683;48.650;9.290;2023-08-21T06:05:54;20.80;92.20
57857;DHT22;43683;48.650;9.290;2023-08-21T06:08:21;20.90;92.10
57857;DHT22;43683;48.650;9.290;2023-08-21T06:10:51;21.10;92.00
57857;DHT22;43683;48.650;9.290;2023-08-21T06:13:17;21.20;91.90
57857;DHT22;43683;48.650;9.290;2023-08-21T06:15:45;21.30;91.80
57857;DHT22;43683;48.650;9.290;2023-08-21T06:18:11;21.40;91.70
57857;DHT22;43683;48.650;9.290;2023-08-21T06:20:37;21.50;91.60
57857;DHT22;43683;48.650;9.290;2023-08-21T06:23:02;21.60;91.50
57857;DHT22;43683;48.650;9.290;2023-08-21T06:25:28;21.70;91.30
57857;DHT22;43683;48.650;9.290;2023-08-21T06:27:56;21.80;91.20
57857;DHT22;43683;48.650;9.290;2023-08-21T06:30:21;21.90;91.10
57857;DHT22;43683;48.650;9.290;2023-08-21T06:32:47;22.10;91.00
57857;DHT22;43683;48.650;9.290;2023-08-21T06:35:12;22.20;90.80
57857;DHT22;43683;48.650;9.290;2023-08-21T06:37:39;22.30;90.70
57857;DHT22;43683;48.650;9.290;2023-08-21T06:40:05;22.50;90.60
57857;DHT22;43683;48.650;9.290;2023-08-21T06:42:32;22.60;90.80
57857;DHT22;43683;48.650;9.290;2023-08-21T06:44:57;22.70;90.40
57857;DHT22;43683;48.650;9.290;2023-08-21T06:47:23;22.90;90.30
57857;DHT22;43683;48.650;9.290;2023-08-21T06:49:49;23.00;90.10
57857;DHT22;43683;48.650;9.290;2023-08-21T06:52:14;23.10;90.00
57857;DHT22;43683;48.650;9.290;2023-08-21T06:54:40;23.30;89.90
57857;DHT22;43683;48.650;9.290;2023-08-21T06:57:05;23.50;90.00
57857;DHT22;43683;48.650;9.290;2023-08-21T06:59:31;23.70;90.00
57857;DHT22;43683;48.650;9.290;2023-08-21T07:02:01;23.90;90.00
57857;DHT22;43683;48.650;9.290;2023-08-21T07:04:27;24.20;89.90
57857;DHT22;43683;48.650;9.290;2023-08-21T07:06:53;24.50;89.60
57857;DHT22;43683;48.650;9.290;2023-08-21T07:09:18;24.80;89.00
57857;DHT22;43683;48.650;9.290;2023-08-21T07:11:44;25.00;88.30
57857;DHT22;43683;48.650;9.290;2023-08-21T07:14:09;25.40;87.50
57857;DHT22;43683;48.650;9.290;2023-08-21T07:16:35;25.60;86.20
57857;DHT22;43683;48.650;9.290;2023-08-21T07:19:00;25.90;85.30
57857;DHT22;43683;48.650;9.290;2023-08-21T07:21:26;26.10;84.70
57857;DHT22;43683;48.650;9.290;2023-08-21T07:23:51;26.30;84.00
57857;DHT22;43683;48.650;9.290;2023-08-21T07:26:17;26.60;82.90
57857;DHT22;43683;48.650;9.290;2023-08-21T07:28:42;26.90;82.20
57857;DHT22;43683;48.650;9.290;2023-08-21T07:31:08;27.00;81.60
57857;DHT22;43683;48.650;9.290;2023-08-21T07:33:33;27.20;80.50
57857;DHT22;43683;48.650;9.290;2023-08-21T07:36:03;27.40;79.60
57857;DHT22;43683;48.650;9.290;2023-08-21T07:38:30;27.60;78.90
57857;DHT22;43683;48.650;9.290;2023-08-21T07:41:06;27.80;76.90
57857;DHT22;43683;48.650;9.290;2023-08-21T07:43:33;28.30;73.80
57857;DHT22;43683;48.650;9.290;2023-08-21T07:46:02;28.90;72.10
57857;DHT22;43683;48.650;9.290;2023-08-21T07:48:28;29.30;70.00
57857;DHT22;43683;48.650;9.290;2023-08-21T07:50:54;29.60;69.00
57857;DHT22;43683;48.650;9.290;2023-08-21T07:53:19;29.90;68.30
57857;DHT22;43683;48.650;9.290;2023-08-21T07:55:45;30.00;67.50
57857;DHT22;43683;48.650;9.290;2023-08-21T07:58:11;30.20;66.40
57857;DHT22;43683;48.650;9.290;2023-08-21T08:00:37;30.20;65.70
57857;DHT22;43683;48.650;9.290;2023-08-21T08:03:04;30.10;65.50
57857;DHT22;43683;48.650;9.290;2023-08-21T08:05:31;30.00;65.30
57857;DHT22;43683;48.650;9.290;2023-08-21T08:07:56;30.00;65.10
57857;DHT22;43683;48.650;9.290;2023-08-21T08:10:22;30.20;65.00
57857;DHT22;43683;48.650;9.290;2023-08-21T08:12:47;30.50;64.20
57857;DHT22;43683;48.650;9.290;2023-08-21T08:15:13;30.70;63.50
57857;DHT22;43683;48.650;9.290;2023-08-21T08:17:38;30.80;63.30
57857;DHT22;43683;48.650;9.290;2023-08-21T08:20:04;30.90;62.80
57857;DHT22;43683;48.650;9.290;2023-08-21T08:22:31;30.90;62.20
57857;DHT22;43683;48.650;9.290;2023-08-21T08:24:57;31.10;62.00
57857;DHT22;43683;48.650;9.290;2023-08-21T08:27:22;31.30;61.60
57857;DHT22;43683;48.650;9.290;2023-08-21T08:29:49;31.50;61.20
57857;DHT22;43683;48.650;9.290;2023-08-21T08:32:14;31.70;61.10
57857;DHT22;43683;48.650;9.290;2023-08-21T08:34:40;31.70;60.70
57857;DHT22;43683;48.650;9.290;2023-08-21T08:37:06;31.50;60.90
57857;DHT22;43683;48.650;9.290;2023-08-21T08:39:31;31.20;61.30
57857;DHT22;43683;48.650;9.290;2023-08-21T08:41:59;31.10;61.30
57857;DHT22;43683;48.650;9.290;2023-08-21T08:44:28;31.20;61.40
57857;DHT22;43683;48.650;9.290;2023-08-21T08:46:55;31.10;61.30
57857;DHT22;43683;48.650;9.290;2023-08-21T08:49:22;30.80;62.20
57857;DHT22;43683;48.650;9.290;2023-08-21T08:51:49;30.80;62.10
57857;DHT22;43683;48.650;9.290;2023-08-21T08:54:16;31.00;61.60
57857;DHT22;43683;48.650;9.290;2023-08-21T08:56:42;31.10;61.50
57857;DHT22;43683;48.650;9.290;2023-08-21T08:59:08;31.30;60.90
57857;DHT22;43683;48.650;9.290;2023-08-21T09:01:34;31.30;60.90
57857;DHT22;43683;48.650;9.290;2023-08-21T09:04:01;31.50;60.70
57857;DHT22;43683;48.650;9.290;2023-08-21T09:06:26;31.60;60.30
57857;DHT22;43683;48.650;9.290;2023-08-21T09:08:57;31.50;60.40
57857;DHT22;43683;48.650;9.290;2023-08-21T09:11:23;31.80;60.30
57857;DHT22;43683;48.650;9.290;2023-08-21T09:13:49;32.50;59.90
57857;DHT22;43683;48.650;9.290;2023-08-21T09:16:20;33.20;58.80
57857;DHT22;43683;48.650;9.290;2023-08-21T09:18:50;33.30;58.20
57857;DHT22;43683;48.650;9.290;2023-08-21T09:21:17;33.50;57.80
57857;DHT22;43683;48.650;9.290;2023-08-21T09:23:43;33.70;57.50
57857;DHT22;43683;48.650;9.290;2023-08-21T09:26:09;33.30;57.40
57857;DHT22;43683;48.650;9.290;2023-08-21T09:28:35;32.90;57.80
57857;DHT22;43683;48.650;9.290;2023-08-21T09:31:00;32.70;57.90
57857;DHT22;43683;48.650;9.290;2023-08-21T09:33:28;32.50;58.20
57857;DHT22;43683;48.650;9.290;2023-08-21T09:35:54;32.20;58.10
57857;DHT22;43683;48.650;9.290;2023-08-21T09:38:20;32.30;58.20
57857;DHT22;43683;48.650;9.290;2023-08-21T09:40:55;32.40;59.10
57857;DHT22;43683;48.650;9.290;2023-08-21T09:43:22;32.40;58.20
57857;DHT22;43683;48.650;9.290;2023-08-21T09:45:50;32.50;57.40
57857;DHT22;43683;48.650;9.290;2023-08-21T09:48:18;32.80;56.40
57857;DHT22;43683;48.650;9.290;2023-08-21T09:50:46;33.00;55.80
57857;DHT22;43683;48.650;9.290;2023-08-21T09:53:12;33.30;54.80
57857;DHT22;43683;48.650;9.290;2023-08-21T09:55:40;33.40;54.60
57857;DHT22;43683;48.650;9.290;2023-08-21T09:58:07;33.70;53.80
57857;DHT22;43683;48.650;9.290;2023-08-21T10:00:35;33.90;53.00
57857;DHT22;43683;48.650;9.290;2023-08-21T10:03:03;34.10;52.20
57857;DHT22;43683;48.650;9.290;2023-08-21T10:05:31;34.40;51.60
57857;DHT22;43683;48.650;9.290;2023-08-21T10:08:02;34.30;51.50
57857;DHT22;43683;48.650;9.290;2023-08-21T10:10:36;34.50;50.90
57857;DHT22;43683;48.650;9.290;2023-08-21T10:13:03;34.40;50.20
57857;DHT22;43683;48.650;9.290;2023-08-21T10:15:29;34.60;50.50
57857;DHT22;43683;48.650;9.290;2023-08-21T10:17:58;34.70;49.80
57857;DHT22;43683;48.650;9.290;2023-08-21T10:20:25;34.60;49.10
57857;DHT22;43683;48.650;9.290;2023-08-21T10:22:55;34.40;49.10
57857;DHT22;43683;48.650;9.290;2023-08-21T10:25:26;34.60;48.80
57857;DHT22;43683;48.650;9.290;2023-08-21T10:27:56;34.60;48.60
57857;DHT22;43683;48.650;9.290;2023-08-21T10:30:27;34.60;48.20
57857;DHT22;43683;48.650;9.290;2023-08-21T10:32:55;34.50;48.10
57857;DHT22;43683;48.650;9.290;2023-08-21T10:35:23;34.40;47.70
57857;DHT22;43683;48.650;9.290;2023-08-21T10:40:34;34.70;47.80
57857;DHT22;43683;48.650;9.290;2023-08-21T10:43:00;34.60;48.00
57857;DHT22;43683;48.650;9.290;2023-08-21T10:45:26;34.70;47.60
57857;DHT22;43683;48.650;9.290;2023-08-21T10:47:52;34.70;48.10
57857;DHT22;43683;48.650;9.290;2023-08-21T10:50:17;34.70;48.00
57857;DHT22;43683;48.650;9.290;2023-08-21T10:52:44;34.80;48.30
57857;DHT22;43683;48.650;9.290;2023-08-21T10:55:13;35.00;47.70
57857;DHT22;43683;48.650;9.290;2023-08-21T10:57:40;34.90;48.50
57857;DHT22;43683;48.650;9.290;2023-08-21T11:00:13;35.30;47.70
57857;DHT22;43683;48.650;9.290;2023-08-21T11:02:42;35.50;46.80
57857;DHT22;43683;48.650;9.290;2023-08-21T11:05:08;35.60;46.50
57857;DHT22;43683;48.650;9.290;2023-08-21T11:07:45;35.60;46.30
57857;DHT22;43683;48.650;9.290;2023-08-21T11:10:15;35.50;46.10
57857;DHT22;43683;48.650;9.290;2023-08-21T11:12:52;35.50;47.10
57857;DHT22;43683;48.650;9.290;2023-08-21T11:15:18;35.20;46.80
57857;DHT22;43683;48.650;9.290;2023-08-21T11:17:58;35.20;46.70
57857;DHT22;43683;48.650;9.290;2023-08-21T11:20:35;35.20;46.40
57857;DHT22;43683;48.650;9.290;2023-08-21T11:23:02;35.20;46.40
57857;DHT22;43683;48.650;9.290;2023-08-21T11:25:30;34.90;46.20
57857;DHT22;43683;48.650;9.290;2023-08-21T11:27:56;34.40;46.50
57857;DHT22;43683;48.650;9.290;2023-08-21T11:30:23;34.50;46.50
57857;DHT22;43683;48.650;9.290;2023-08-21T11:32:49;34.50;46.60
57857;DHT22;43683;48.650;9.290;2023-08-21T11:35:15;34.70;46.30
57857;DHT22;43683;48.650;9.290;2023-08-21T11:37:45;34.90;45.50
57857;DHT22;43683;48.650;9.290;2023-08-21T11:40:11;35.10;46.20
57857;DHT22;43683;48.650;9.290;2023-08-21T11:42:38;35.60;45.40
57857;DHT22;43683;48.650;9.290;2023-08-21T11:45:04;36.00;44.60
57857;DHT22;43683;48.650;9.290;2023-08-21T11:47:32;36.10;44.40
57857;DHT22;43683;48.650;9.290;2023-08-21T11:50:02;36.10;44.10
57857;DHT22;43683;48.650;9.290;2023-08-21T11:52:29;36.20;43.80
57857;DHT22;43683;48.650;9.290;2023-08-21T11:54:57;36.20;43.80
57857;DHT22;43683;48.650;9.290;2023-08-21T11:57:23;36.40;43.60
57857;DHT22;43683;48.650;9.290;2023-08-21T11:59:53;36.50;43.00
57857;DHT22;43683;48.650;9.290;2023-08-21T12:02:22;36.30;43.40
57857;DHT22;43683;48.650;9.290;2023-08-21T12:04:52;36.40;43.20
57857;DHT22;43683;48.650;9.290;2023-08-21T12:07:18;35.90;43.40
57857;DHT22;43683;48.650;9.290;2023-08-21T12:09:47;35.30;44.00
57857;DHT22;43683;48.650;9.290;2023-08-21T12:12:14;35.10;44.80
57857;DHT22;43683;48.650;9.290;2023-08-21T12:14:40;34.40;45.40
57857;DHT22;43683;48.650;9.290;2023-08-21T12:17:05;34.30;45.20
57857;DHT22;43683;48.650;9.290;2023-08-21T12:19:31;34.70;44.70
57857;DHT22;43683;48.650;9.290;2023-08-21T12:21:56;35.00;44.10
57857;DHT22;43683;48.650;9.290;2023-08-21T12:24:24;35.40;43.70
57857;DHT22;43683;48.650;9.290;2023-08-21T12:26:49;35.50;44.20
57857;DHT22;43683;48.650;9.290;2023-08-21T12:29:15;35.00;44.20
57857;DHT22;43683;48.650;9.290;2023-08-21T12:31:40;34.40;45.00
57857;DHT22;43683;48.650;9.290;2023-08-21T12:34:06;33.90;45.70
57857;DHT22;43683;48.650;9.290;2023-08-21T12:36:34;33.80;45.80
57857;DHT22;43683;48.650;9.290;2023-08-21T12:39:01;33.60;45.60
57857;DHT22;43683;48.650;9.290;2023-08-21T12:41:26;33.80;45.60
57857;DHT22;43683;48.650;9.290;2023-08-21T12:43:52;34.30;44.90
57857;DHT22;43683;48.650;9.290;2023-08-21T12:46:17;34.40;44.30
57857;DHT22;43683;48.650;9.290;2023-08-21T12:48:43;34.70;43.90
57857;DHT22;43683;48.650;9.290;2023-08-21T12:51:08;34.80;43.40
57857;DHT22;43683;48.650;9.290;2023-08-21T12:53:34;35.00;42.90
57857;DHT22;43683;48.650;9.290;2023-08-21T12:56:00;35.40;43.40
57857;DHT22;43683;48.650;9.290;2023-08-21T12:58:26;35.80;42.30
57857;DHT22;43683;48.650;9.290;2023-08-21T13:00:52;35.90;42.00
57857;DHT22;43683;48.650;9.290;2023-08-21T13:03:18;35.80;42.60
57857;DHT22;43683;48.650;9.290;2023-08-21T13:05:44;35.90;42.00
57857;DHT22;43683;48.650;9.290;2023-08-21T13:08:09;35.90;41.80
57857;DHT22;43683;48.650;9.290;2023-08-21T13:10:35;36.00;42.20
57857;DHT22;43683;48.650;9.290;2023-08-21T13:13:00;36.10;42.30
57857;DHT22;43683;48.650;9.290;2023-08-21T13:15:26;36.30;41.80
57857;DHT22;43683;48.650;9.290;2023-08-21T13:17:51;36.40;41.50
57857;DHT22;43683;48.650;9.290;2023-08-21T13:20:17;36.50;41.30
57857;DHT22;43683;48.650;9.290;2023-08-21T13:22:46;36.50;41.10
57857;DHT22;43683;48.650;9.290;2023-08-21T13:25:14;36.70;40.90
57857;DHT22;43683;48.650;9.290;2023-08-21T13:27:40;36.80;40.40
57857;DHT22;43683;48.650;9.290;2023-08-21T13:30:06;36.90;40.10
57857;DHT22;43683;48.650;9.290;2023-08-21T13:32:32;36.70;40.50
57857;DHT22;43683;48.650;9.290;2023-08-21T13:34:58;36.70;40.50
57857;DHT22;43683;48.650;9.290;2023-08-21T13:37:23;36.70;40.60
57857;DHT22;43683;48.650;9.290;2023-08-21T13:39:49;36.70;42.00
57857;DHT22;43683;48.650;9.290;2023-08-21T13:42:14;36.80;40.80
57857;DHT22;43683;48.650;9.290;2023-08-21T13:44:40;36.90;40.50
57857;DHT22;43683;48.650;9.290;2023-08-21T13:47:05;37.00;40.40
57857;DHT22;43683;48.650;9.290;2023-08-21T13:49:31;37.20;39.80
57857;DHT22;43683;48.650;9.290;2023-08-21T13:51:57;36.90;39.50
57857;DHT22;43683;48.650;9.290;2023-08-21T13:54:22;36.80;39.10
57857;DHT22;43683;48.650;9.290;2023-08-21T13:56:48;36.70;38.90
57857;DHT22;43683;48.650;9.290;2023-08-21T13:59:13;36.70;38.80
57857;DHT22;43683;48.650;9.290;2023-08-21T14:01:39;36.60;38.50
57857;DHT22;43683;48.650;9.290;2023-08-21T14:04:04;36.50;38.00
57857;DHT22;43683;48.650;9.290;2023-08-21T14:06:30;36.40;38.10
57857;DHT22;43683;48.650;9.290;2023-08-21T14:08:56;36.40;37.70
57857;DHT22;43683;48.650;9.290;2023-08-21T14:11:21;36.30;37.80
57857;DHT22;43683;48.650;9.290;2023-08-21T14:13:47;36.30;37.50
57857;DHT22;43683;48.650;9.290;2023-08-21T14:16:12;36.30;37.50
57857;DHT22;43683;48.650;9.290;2023-08-21T14:18:38;36.30;37.50
57857;DHT22;43683;48.650;9.290;2023-08-21T14:21:03;36.50;37.60
57857;DHT22;43683;48.650;9.290;2023-08-21T14:23:29;36.70;38.10
57857;DHT22;43683;48.650;9.290;2023-08-21T14:25:55;36.90;38.20
57857;DHT22;43683;48.650;9.290;2023-08-21T14:28:20;37.00;38.10
57857;DHT22;43683;48.650;9.290;2023-08-21T14:30:46;36.90;38.40
57857;DHT22;43683;48.650;9.290;2023-08-21T14:33:12;36.70;38.60
57857;DHT22;43683;48.650;9.290;2023-08-21T14:35:38;36.80;39.00
57857;DHT22;43683;48.650;9.290;2023-08-21T14:38:03;36.90;39.40
57857;DHT22;43683;48.650;9.290;2023-08-21T14:40:29;37.00;39.30
57857;DHT22;43683;48.650;9.290;2023-08-21T14:42:54;37.10;39.20
57857;DHT22;43683;48.650;9.290;2023-08-21T14:45:20;37.30;38.60
57857;DHT22;43683;48.650;9.290;2023-08-21T14:47:45;37.30;38.40
57857;DHT22;43683;48.650;9.290;2023-08-21T14:50:11;37.40;38.80
57857;DHT22;43683;48.650;9.290;2023-08-21T14:52:37;37.30;38.90
57857;DHT22;43683;48.650;9.290;2023-08-21T14:55:02;37.40;38.70
57857;DHT22;43683;48.650;9.290;2023-08-21T14:57:28;37.20;39.20
57857;DHT22;43683;48.650;9.290;2023-08-21T14:59:54;37.00;39.20
57857;DHT22;43683;48.650;9.290;2023-08-21T15:02:20;36.60;39.50
57857;DHT22;43683;48.650;9.290;2023-08-21T15:04:46;36.60;39.80
57857;DHT22;43683;48.650;9.290;2023-08-21T15:07:11;36.70;39.50
57857;DHT22;43683;48.650;9.290;2023-08-21T15:09:37;36.80;39.50
57857;DHT22;43683;48.650;9.290;2023-08-21T15:12:02;36.80;39.40
57857;DHT22;43683;48.650;9.290;2023-08-21T15:14:28;36.80;38.90
57857;DHT22;43683;48.650;9.290;2023-08-21T15:16:53;36.80;39.50
57857;DHT22;43683;48.650;9.290;2023-08-21T15:19:19;36.70;39.60
57857;DHT22;43683;48.650;9.290;2023-08-21T15:21:44;36.60;39.60
57857;DHT22;43683;48.650;9.290;2023-08-21T15:24:10;36.70;39.20
57857;DHT22;43683;48.650;9.290;2023-08-21T15:26:35;36.90;39.10
57857;DHT22;43683;48.650;9.290;2023-08-21T15:29:01;37.10;39.20
57857;DHT22;43683;48.650;9.290;2023-08-21T15:31:27;37.00;39.00